createdAt,value
2022-10-11T00:00:05.478Z,2.40
2022-10-11T00:02:34.479Z,1.70
2022-10-11T00:05:05.211Z,1.30
2022-10-11T00:07:34.156Z,1.40
2022-10-11T00:10:03.185Z,1.90
2022-10-11T00:12:32.571Z,2.07
2022-10-11T00:15:01.776Z,1.60
2022-10-11T00:17:30.938Z,1.60
2022-10-11T00:20:00.133Z,1.50
2022-10-11T00:22:30.520Z,1.50
2022-10-11T00:24:59.718Z,1.37
2022-10-11T00:27:28.939Z,2.50
2022-10-11T00:29:58.245Z,2.07
2022-10-11T00:32:27.335Z,2.30
2022-10-11T00:34:59.624Z,1.73
2022-10-11T00:37:29.976Z,1.63
2022-10-11T00:39:59.045Z,2.00
2022-10-11T00:42:28.219Z,1.80
2022-10-11T00:45:30.809Z,2.13
2022-10-11T00:48:03.450Z,1.63
2022-10-11T00:50:36.118Z,1.47
2022-10-11T00:53:11.349Z,1.40
2022-10-11T00:55:46.586Z,1.53
2022-10-11T00:58:16.002Z,1.80
2022-10-11T01:00:45.135Z,1.57
2022-10-11T01:03:14.153Z,1.77
2022-10-11T01:05:43.462Z,1.80
2022-10-11T01:08:14.262Z,1.50
2022-10-11T01:10:43.244Z,1.50
2022-10-11T01:13:22.115Z,1.93
2022-10-11T01:15:59.520Z,1.27
2022-10-11T01:18:35.939Z,1.83
2022-10-11T01:21:12.340Z,1.60
2022-10-11T01:24:20.977Z,1.70
2022-10-11T01:27:26.015Z,1.63
2022-10-11T01:30:06.005Z,1.57
2022-10-11T01:32:45.168Z,1.50
2022-10-11T01:35:22.217Z,1.90
2022-10-11T01:37:56.745Z,1.40
2022-10-11T01:40:31.556Z,1.70
2022-10-11T01:43:01.434Z,1.50
2022-10-11T01:45:32.157Z,1.80
2022-10-11T01:48:08.564Z,2.37
2022-10-11T01:50:44.210Z,1.77
2022-10-11T01:53:29.820Z,1.70
2022-10-11T01:56:07.154Z,1.50
2022-10-11T01:58:47.715Z,2.43
2022-10-11T02:01:28.418Z,0.97
2022-10-11T02:04:06.518Z,2.23
2022-10-11T02:06:46.288Z,2.37
2022-10-11T02:09:24.754Z,1.70
2022-10-11T02:11:58.177Z,1.97
2022-10-11T02:14:32.515Z,1.80
2022-10-11T02:17:07.597Z,1.83
2022-10-11T02:19:42.811Z,2.33
2022-10-11T02:22:16.733Z,1.80
2022-10-11T02:24:50.368Z,1.40
2022-10-11T02:27:22.879Z,1.73
2022-10-11T02:29:55.026Z,1.63
2022-10-11T02:32:26.635Z,1.60
2022-10-11T02:34:58.839Z,1.50
2022-10-11T02:37:36.936Z,1.60
2022-10-11T02:40:11.982Z,1.97
2022-10-11T02:42:46.391Z,1.80
2022-10-11T02:45:19.518Z,1.90
2022-10-11T02:47:49.319Z,2.43
2022-10-11T02:50:19.864Z,1.60
2022-10-11T02:52:48.908Z,1.63
2022-10-11T02:55:18.097Z,1.73
2022-10-11T02:57:47.186Z,1.43
2022-10-11T03:00:16.882Z,1.90
2022-10-11T03:02:45.888Z,1.80
2022-10-11T03:05:14.889Z,2.40
2022-10-11T03:07:45.199Z,1.67
2022-10-11T03:10:14.607Z,2.00
2022-10-11T03:12:43.600Z,1.63
2022-10-11T03:15:12.682Z,2.17
2022-10-11T03:17:41.624Z,1.47
2022-10-11T03:20:11.223Z,1.60
2022-10-11T03:22:40.753Z,2.07
2022-10-11T03:25:11.710Z,1.83
2022-10-11T03:27:41.085Z,1.60
2022-10-11T03:30:13.338Z,1.53
2022-10-11T03:32:45.276Z,2.40
2022-10-11T03:35:14.470Z,1.67
2022-10-11T03:37:43.431Z,1.60
2022-10-11T03:40:14.501Z,1.80
2022-10-11T03:42:43.486Z,1.50
2022-10-11T03:45:12.698Z,1.40
2022-10-11T03:47:42.195Z,1.60
2022-10-11T03:50:11.945Z,1.50
2022-10-11T03:52:40.966Z,1.77
2022-10-11T03:55:10.476Z,2.00
2022-10-11T03:57:41.485Z,2.20
2022-10-11T04:00:11.329Z,1.43
2022-10-11T04:02:40.295Z,1.70
2022-10-11T04:05:10.327Z,1.63
2022-10-11T04:07:39.452Z,1.63
2022-10-11T04:10:09.520Z,2.10
2022-10-11T04:12:40.300Z,1.70
2022-10-11T04:15:12.565Z,1.97
2022-10-11T04:17:41.823Z,1.57
2022-10-11T04:20:11.724Z,1.40
2022-10-11T04:22:40.894Z,2.03
2022-10-11T04:25:10.681Z,1.77
2022-10-11T04:27:42.262Z,1.60
2022-10-11T04:30:12.794Z,1.60
2022-10-11T04:32:41.789Z,2.43
2022-10-11T04:35:10.922Z,1.40
2022-10-11T04:37:40.254Z,1.47
2022-10-11T04:40:11.092Z,2.10
2022-10-11T04:42:41.399Z,1.83
2022-10-11T04:45:11.113Z,2.27
2022-10-11T04:47:41.054Z,1.70
2022-10-11T04:50:10.368Z,1.53
2022-10-11T04:52:39.315Z,1.97
2022-10-11T04:55:08.842Z,2.00
2022-10-11T04:57:39.025Z,1.80
2022-10-11T05:00:10.977Z,1.60
2022-10-11T05:02:39.915Z,2.30
2022-10-11T05:05:09.840Z,2.10
2022-10-11T05:07:38.817Z,1.90
2022-10-11T05:10:09.217Z,1.23
2022-10-11T05:12:38.273Z,1.67
2022-10-11T05:15:10.213Z,1.90
2022-10-11T05:17:41.292Z,2.00
2022-10-11T05:20:10.989Z,1.93
2022-10-11T05:22:39.975Z,2.10
2022-10-11T05:25:09.402Z,2.57
2022-10-11T05:27:38.367Z,2.00
2022-10-11T05:30:09.866Z,2.47
2022-10-11T05:32:38.886Z,1.53
2022-10-11T05:35:08.591Z,2.07
2022-10-11T05:37:37.598Z,1.97
2022-10-11T05:40:07.766Z,1.50
2022-10-11T05:42:36.758Z,1.97
2022-10-11T05:45:06.920Z,2.30
2022-10-11T05:47:37.425Z,2.40
2022-10-11T05:50:07.078Z,2.20
2022-10-11T05:52:35.980Z,2.10
2022-10-11T05:55:05.404Z,1.90
2022-10-11T05:57:34.414Z,2.03
2022-10-11T06:00:03.572Z,2.97
2022-10-11T06:02:42.607Z,2.77
2022-10-11T06:05:11.667Z,2.10
2022-10-11T06:07:41.266Z,2.63
2022-10-11T06:10:10.839Z,1.97
2022-10-11T06:12:39.965Z,1.77
2022-10-11T06:15:10.788Z,2.17
2022-10-11T06:17:41.202Z,2.00
2022-10-11T06:20:11.116Z,2.30
2022-10-11T06:22:40.181Z,1.90
2022-10-11T06:25:09.655Z,2.53
2022-10-11T06:27:38.680Z,2.60
2022-10-11T06:30:08.634Z,1.90
2022-10-11T06:32:37.542Z,2.53
2022-10-11T06:35:08.991Z,2.30
2022-10-11T06:37:37.943Z,2.07
2022-10-11T06:40:08.038Z,2.57
2022-10-11T06:42:36.984Z,2.30
2022-10-11T06:45:06.855Z,2.33
2022-10-11T06:47:35.825Z,2.73
2022-10-11T06:50:06.180Z,2.80
2022-10-11T06:52:36.534Z,2.17
2022-10-11T06:55:06.112Z,2.27
2022-10-11T06:57:35.068Z,2.17
2022-10-11T07:00:07.067Z,1.93
2022-10-11T07:02:39.222Z,2.03
2022-10-11T07:05:09.042Z,2.73
2022-10-11T07:07:39.309Z,2.40
2022-10-11T07:10:09.250Z,2.70
2022-10-11T07:12:38.179Z,1.90
2022-10-11T07:15:08.193Z,2.47
2022-10-11T07:17:37.147Z,2.23
2022-10-11T07:20:07.159Z,2.80
2022-10-11T07:22:36.198Z,2.37
2022-10-11T07:25:07.714Z,2.77
2022-10-11T07:27:36.704Z,2.07
2022-10-11T07:30:06.602Z,2.60
2022-10-11T07:32:35.552Z,2.73
2022-10-11T07:35:04.817Z,2.40
2022-10-11T07:37:35.043Z,2.27
2022-10-11T07:40:06.874Z,2.83
2022-10-11T07:42:35.809Z,1.80
2022-10-11T07:45:05.512Z,1.77
2022-10-11T07:47:34.444Z,2.60
2022-10-11T07:50:03.442Z,2.50
2022-10-11T07:52:32.438Z,2.33
2022-10-11T07:55:01.398Z,2.50
2022-10-11T07:57:31.778Z,2.40
2022-10-11T08:00:00.739Z,2.87
2022-10-11T08:02:29.684Z,2.27
2022-10-11T08:04:59.247Z,2.17
2022-10-11T08:07:29.660Z,2.37
2022-10-11T08:09:58.779Z,2.40
2022-10-11T08:12:27.738Z,1.83
2022-10-11T08:14:58.069Z,2.07
2022-10-11T08:17:27.110Z,3.00
2022-10-11T08:19:57.946Z,2.00
2022-10-11T08:22:26.936Z,2.47
2022-10-11T08:24:55.846Z,1.83
2022-10-11T08:27:24.892Z,1.57
2022-10-11T08:29:53.829Z,2.37
2022-10-11T08:32:24.146Z,2.33
2022-10-11T08:34:53.063Z,1.80
2022-10-11T08:37:22.015Z,2.07
2022-10-11T08:39:51.003Z,2.47
2022-10-11T08:42:30.195Z,2.17
2022-10-11T08:45:11.136Z,2.50
2022-10-11T08:47:45.101Z,3.10
2022-10-11T08:50:20.723Z,2.30
2022-10-11T08:52:54.552Z,1.70
2022-10-11T08:55:31.398Z,2.50
2022-10-11T08:58:01.052Z,2.07
2022-10-11T09:00:34.044Z,1.33
2022-10-11T09:03:12.544Z,2.30
2022-10-11T09:05:52.777Z,1.60
2022-10-11T09:08:28.546Z,1.52
2022-10-11T09:11:07.013Z,1.50
2022-10-11T09:14:06.608Z,1.23
2022-10-11T09:16:49.273Z,1.17
2022-10-11T09:20:06.347Z,1.83
2022-10-11T09:22:45.408Z,1.30
2022-10-11T09:25:23.973Z,1.83
2022-10-11T09:28:06.362Z,1.60
2022-10-11T09:30:48.074Z,1.60
2022-10-11T09:33:21.044Z,1.30
2022-10-11T09:35:53.184Z,0.90
2022-10-11T09:38:40.721Z,1.38
2022-10-11T09:41:19.509Z,1.63
2022-10-11T09:43:51.213Z,1.33
2022-10-11T09:46:23.975Z,1.30
2022-10-11T09:48:55.450Z,1.23
2022-10-11T09:51:27.894Z,1.58
2022-10-11T09:54:00.771Z,1.30
2022-10-11T09:56:31.627Z,1.30
2022-10-11T09:59:26.195Z,0.95
2022-10-11T10:02:18.870Z,1.60
2022-10-11T10:05:14.081Z,1.50
2022-10-11T10:08:05.106Z,1.83
2022-10-11T10:10:42.208Z,1.50
2022-10-11T10:13:22.661Z,1.30
2022-10-11T10:15:53.512Z,1.75
2022-10-11T10:18:25.213Z,1.88
2022-10-11T10:20:56.833Z,1.30
2022-10-11T10:23:28.745Z,1.20
2022-10-11T10:26:14.748Z,1.30
2022-10-11T10:29:01.011Z,1.67
2022-10-11T10:31:49.518Z,1.98
2022-10-11T10:34:28.676Z,1.13
2022-10-11T10:37:01.806Z,1.63
2022-10-11T10:39:37.911Z,1.90
2022-10-11T10:42:14.922Z,1.85
2022-10-11T10:44:45.937Z,1.55
2022-10-11T10:47:25.005Z,1.27
2022-10-11T10:50:01.244Z,1.48
2022-10-11T10:52:49.207Z,1.75
2022-10-11T10:55:26.517Z,1.60
2022-10-11T10:58:09.644Z,0.93
2022-10-11T11:00:44.470Z,1.50
2022-10-11T11:03:22.828Z,1.20
2022-10-11T11:06:01.789Z,1.98
2022-10-11T11:08:49.047Z,1.48
2022-10-11T11:11:41.695Z,1.40
2022-10-11T11:14:23.356Z,1.50
2022-10-11T11:17:01.074Z,1.05
2022-10-11T11:19:41.935Z,1.27
2022-10-11T11:22:21.175Z,1.30
2022-10-11T11:25:01.009Z,1.17
2022-10-11T11:27:44.128Z,1.33
2022-10-11T11:30:21.278Z,1.40
2022-10-11T11:33:02.351Z,1.00
2022-10-11T11:35:37.906Z,1.50
2022-10-11T11:38:17.793Z,1.42
2022-10-11T11:40:52.914Z,1.30
2022-10-11T11:43:27.828Z,1.33
2022-10-11T11:46:02.154Z,1.20
2022-10-11T11:48:31.272Z,1.60
2022-10-11T11:51:06.784Z,1.13
2022-10-11T11:53:51.454Z,1.45
2022-10-11T11:56:28.725Z,1.33
2022-10-11T11:59:07.498Z,1.17
2022-10-11T12:01:45.590Z,1.10
2022-10-11T12:04:22.915Z,1.48
2022-10-11T12:07:18.058Z,1.73
2022-10-11T12:09:50.555Z,1.30
2022-10-11T12:12:30.070Z,1.13
2022-10-11T12:15:19.915Z,1.10
2022-10-11T12:18:15.475Z,1.38
2022-10-11T12:20:46.049Z,1.20
2022-10-11T12:23:42.067Z,1.58
2022-10-11T12:26:33.525Z,1.48
2022-10-11T12:29:41.526Z,1.63
2022-10-11T12:32:51.801Z,1.20
2022-10-11T12:35:57.209Z,1.15
2022-10-11T12:38:28.562Z,0.90
2022-10-11T12:41:00.462Z,1.20
2022-10-11T12:43:36.879Z,1.52
2022-10-11T12:46:41.474Z,1.30
2022-10-11T12:49:41.766Z,1.05
2022-10-11T12:52:30.178Z,1.30
2022-10-11T12:55:22.429Z,1.63
2022-10-11T12:58:24.480Z,1.70
2022-10-11T13:01:22.055Z,1.45
2022-10-11T13:03:59.238Z,1.50
2022-10-11T13:06:31.989Z,1.60
2022-10-11T13:09:08.138Z,0.90
2022-10-11T13:11:41.469Z,1.10
2022-10-11T13:14:17.401Z,1.90
2022-10-11T13:16:51.808Z,1.40
2022-10-11T13:19:24.248Z,1.33
2022-10-11T13:21:56.949Z,1.13
2022-10-11T13:24:29.447Z,0.95
2022-10-11T13:26:58.994Z,1.25
2022-10-11T13:29:34.402Z,1.13
2022-10-11T13:32:07.281Z,2.00
2022-10-11T13:34:40.218Z,1.10
2022-10-11T13:37:16.559Z,1.20
2022-10-11T13:39:48.835Z,1.10
2022-10-11T13:42:19.704Z,1.83
2022-10-11T13:44:49.262Z,1.40
2022-10-11T13:47:21.998Z,1.58
2022-10-11T13:50:03.707Z,1.40
2022-10-11T13:52:33.357Z,1.48
2022-10-11T13:55:22.716Z,1.30
2022-10-11T13:57:53.288Z,1.38
2022-10-11T14:00:29.643Z,1.40
2022-10-11T14:03:01.295Z,1.23
2022-10-11T14:05:33.689Z,1.23
2022-10-11T14:08:05.357Z,1.30
2022-10-11T14:10:36.277Z,1.52
2022-10-11T14:13:08.984Z,1.00
2022-10-11T14:15:39.174Z,1.45
2022-10-11T14:18:43.341Z,1.20
2022-10-11T14:21:57.206Z,1.42
2022-10-11T14:24:26.208Z,1.65
2022-10-11T14:26:58.052Z,1.17
2022-10-11T14:29:28.983Z,1.30
2022-10-11T14:32:02.289Z,1.15
2022-10-11T14:34:31.972Z,1.52
2022-10-11T14:37:00.958Z,1.42
2022-10-11T14:39:33.101Z,1.40
2022-10-11T14:42:03.642Z,1.35
2022-10-11T14:44:32.549Z,1.10
2022-10-11T14:47:02.425Z,1.13
2022-10-11T14:49:33.614Z,1.20
2022-10-11T14:52:03.686Z,1.08
2022-10-11T14:54:33.165Z,1.73
2022-10-11T14:57:06.100Z,1.30
2022-10-11T14:59:37.739Z,1.57
2022-10-11T15:02:09.156Z,1.97
2022-10-11T15:04:38.105Z,1.47
2022-10-11T15:07:07.197Z,1.20
2022-10-11T15:09:36.106Z,1.50
2022-10-11T15:12:06.837Z,1.50
2022-10-11T15:14:35.765Z,1.13
2022-10-11T15:17:04.748Z,1.30
2022-10-11T15:19:33.701Z,1.93
2022-10-11T15:22:04.277Z,1.40
2022-10-11T15:24:33.333Z,1.70
2022-10-11T15:27:02.285Z,1.80
2022-10-11T15:29:32.621Z,1.23
2022-10-11T15:32:01.618Z,1.83
2022-10-11T15:34:30.559Z,1.30
2022-10-11T15:36:59.684Z,1.80
2022-10-11T15:39:32.466Z,1.40
2022-10-11T15:42:01.921Z,1.40
2022-10-11T15:44:32.219Z,1.40
2022-10-11T15:47:01.176Z,1.40
2022-10-11T15:49:30.129Z,1.50
2022-10-11T15:51:59.069Z,1.27
2022-10-11T15:54:28.011Z,2.00
2022-10-11T15:56:57.079Z,1.60
2022-10-11T15:59:25.982Z,2.17
2022-10-11T16:01:56.432Z,2.97
2022-10-11T16:04:25.398Z,2.20
2022-10-11T16:06:54.332Z,2.10
2022-10-11T16:09:23.233Z,1.93
2022-10-11T16:11:52.144Z,1.63
2022-10-11T16:14:21.076Z,2.07
2022-10-11T16:16:50.004Z,2.13
2022-10-11T16:19:20.256Z,2.00
2022-10-11T16:21:49.203Z,1.90
2022-10-11T16:24:18.122Z,2.00
2022-10-11T16:26:47.124Z,2.30
2022-10-11T16:29:16.053Z,1.90
2022-10-11T16:31:44.975Z,2.03
2022-10-11T16:34:13.852Z,3.87
2022-10-11T16:36:45.786Z,2.73
2022-10-11T16:39:16.875Z,2.23
2022-10-11T16:41:47.208Z,2.10
2022-10-11T16:44:19.244Z,2.00
2022-10-11T16:46:49.508Z,1.93
2022-10-11T16:49:21.949Z,2.30
2022-10-11T16:51:53.865Z,1.30
2022-10-11T16:54:23.684Z,1.70
2022-10-11T16:56:52.642Z,1.53
2022-10-11T16:59:21.766Z,1.57
2022-10-11T17:01:50.711Z,2.03
2022-10-11T17:04:19.771Z,2.30
2022-10-11T17:06:48.798Z,2.50
2022-10-11T17:09:19.279Z,2.03
2022-10-11T17:11:48.219Z,2.60
2022-10-11T17:14:17.299Z,2.13
2022-10-11T17:16:46.634Z,2.27
2022-10-11T17:19:16.806Z,2.10
2022-10-11T17:21:45.768Z,2.50
2022-10-11T17:24:14.707Z,2.17
2022-10-11T17:26:44.969Z,2.30
2022-10-11T17:29:15.983Z,2.37
2022-10-11T17:31:49.058Z,2.03
2022-10-11T17:34:18.672Z,2.53
2022-10-11T17:36:47.712Z,1.80
2022-10-11T17:39:20.037Z,1.90
2022-10-11T17:41:50.747Z,2.00
2022-10-11T17:44:20.519Z,1.70
2022-10-11T17:46:50.161Z,1.93
2022-10-11T17:49:19.160Z,1.93
2022-10-11T17:51:48.206Z,1.93
2022-10-11T17:54:17.147Z,2.17
2022-10-11T17:56:46.071Z,2.07
2022-10-11T17:59:21.183Z,2.33
2022-10-11T18:01:50.792Z,2.50
2022-10-11T18:04:21.652Z,2.63
2022-10-11T18:06:50.776Z,3.13
2022-10-11T18:09:20.040Z,2.90
2022-10-11T18:11:49.404Z,2.90
2022-10-11T18:14:20.090Z,3.30
2022-10-11T18:16:50.496Z,2.90
2022-10-11T18:19:19.492Z,2.63
2022-10-11T18:21:48.442Z,2.67
2022-10-11T18:24:18.312Z,2.60
2022-10-11T18:26:47.793Z,2.27
2022-10-11T18:29:16.858Z,11.23
2022-10-11T18:31:47.241Z,4.63
2022-10-11T18:34:16.214Z,3.30
2022-10-11T18:36:45.692Z,2.97
2022-10-11T18:39:16.217Z,2.63
2022-10-11T18:41:45.436Z,2.47
2022-10-11T18:44:16.153Z,3.57
2022-10-11T18:46:46.929Z,3.57
2022-10-11T18:49:15.891Z,3.27
2022-10-11T18:51:47.888Z,3.13
2022-10-11T18:54:20.261Z,3.60
2022-10-11T18:56:50.662Z,3.53
2022-10-11T18:59:20.340Z,3.30
2022-10-11T19:01:52.634Z,3.70
2022-10-11T19:04:22.110Z,4.80
2022-10-11T19:06:52.566Z,3.73
2022-10-11T19:09:23.377Z,3.20
2022-10-11T19:11:53.611Z,3.03
2022-10-11T19:14:25.546Z,2.87
2022-10-11T19:16:56.425Z,3.37
2022-10-11T19:19:28.049Z,3.80
2022-10-11T19:21:57.504Z,3.20
2022-10-11T19:24:29.710Z,3.23
2022-10-11T19:27:02.548Z,3.13
2022-10-11T19:29:32.750Z,2.47
2022-10-11T19:32:04.802Z,3.40
2022-10-11T19:34:33.845Z,3.03
2022-10-11T19:37:03.978Z,3.23
2022-10-11T19:39:33.141Z,3.37
2022-10-11T19:42:02.530Z,3.07
2022-10-11T19:44:35.727Z,2.70
2022-10-11T19:47:10.058Z,3.17
2022-10-11T19:49:39.076Z,3.47
2022-10-11T19:52:09.451Z,2.90
2022-10-11T19:54:38.425Z,3.23
2022-10-11T19:57:08.704Z,3.43
2022-10-11T19:59:37.718Z,2.90
2022-10-11T20:02:08.348Z,4.77
2022-10-11T20:04:51.945Z,4.53
2022-10-11T20:07:21.269Z,5.40
2022-10-11T20:09:50.240Z,9.50
2022-10-11T20:12:19.227Z,6.80
2022-10-11T20:14:48.528Z,6.23
2022-10-11T20:17:18.832Z,6.03
2022-10-11T20:19:47.844Z,5.57
2022-10-11T20:22:16.916Z,5.77
2022-10-11T20:24:45.858Z,5.50
2022-10-11T20:27:14.917Z,5.33
2022-10-11T20:29:43.869Z,5.90
2022-10-11T20:32:12.834Z,5.90
2022-10-11T20:34:43.178Z,6.80
2022-10-11T20:37:12.207Z,5.40
2022-10-11T20:39:41.212Z,6.13
2022-10-11T20:42:10.149Z,6.50
2022-10-11T20:44:39.219Z,6.87
2022-10-11T20:47:08.556Z,8.43
2022-10-11T20:49:37.702Z,8.30
2022-10-11T20:52:08.268Z,9.27
2022-10-11T20:54:37.253Z,10.90
2022-10-11T20:57:06.274Z,11.97
2022-10-11T20:59:35.665Z,11.30
2022-10-11T21:02:04.705Z,9.83
2022-10-11T21:04:33.717Z,11.97
2022-10-11T21:07:02.906Z,11.37
2022-10-11T21:09:33.234Z,10.30
2022-10-11T21:12:02.749Z,10.03
2022-10-11T21:14:31.739Z,9.47
2022-10-11T21:17:00.754Z,9.63
2022-10-11T21:19:29.986Z,9.40
2022-10-11T21:21:58.911Z,7.43
2022-10-11T21:24:27.888Z,7.30
2022-10-11T21:27:00.674Z,6.87
2022-10-11T21:29:30.563Z,6.33
2022-10-11T21:31:59.572Z,7.00
2022-10-11T21:34:28.514Z,6.50
2022-10-11T21:36:57.452Z,6.83
2022-10-11T21:39:26.470Z,7.37
2022-10-11T21:41:56.880Z,7.83
2022-10-11T21:44:25.989Z,6.60
2022-10-11T21:47:06.606Z,6.30
2022-10-11T21:49:37.014Z,6.00
2022-10-11T21:52:06.505Z,9.37
2022-10-11T21:54:35.596Z,7.43
2022-10-11T21:57:06.225Z,6.93
2022-10-11T21:59:35.218Z,6.70
2022-10-11T22:02:04.371Z,5.60
2022-10-11T22:04:33.433Z,6.57
2022-10-11T22:07:02.429Z,5.80
2022-10-11T22:09:34.867Z,5.13
2022-10-11T22:12:05.789Z,6.23
2022-10-11T22:14:34.886Z,6.20
2022-10-11T22:17:03.907Z,5.60
2022-10-11T22:19:32.901Z,5.53
2022-10-11T22:22:01.914Z,5.93
2022-10-11T22:24:31.039Z,4.90
2022-10-11T22:27:00.207Z,5.10
2022-10-11T22:29:34.036Z,5.03
2022-10-11T22:32:03.373Z,6.30
2022-10-11T22:34:32.846Z,6.63
2022-10-11T22:37:01.876Z,5.70
2022-10-11T22:39:31.643Z,5.67
2022-10-11T22:42:00.671Z,5.37
2022-10-11T22:44:31.098Z,5.37
2022-10-11T22:47:00.115Z,4.93
2022-10-11T22:49:29.160Z,5.43
2022-10-11T22:51:58.203Z,5.43
2022-10-11T22:54:27.357Z,5.90
2022-10-11T22:56:56.369Z,5.93
2022-10-11T22:59:25.461Z,5.20
2022-10-11T23:01:55.887Z,4.90
2022-10-11T23:04:24.897Z,4.87
2022-10-11T23:06:53.908Z,11.83
2022-10-11T23:09:26.452Z,6.83
2022-10-11T23:11:55.468Z,5.17
2022-10-11T23:14:24.526Z,5.57
2022-10-11T23:16:55.081Z,6.13
2022-10-11T23:19:24.122Z,5.77
2022-10-11T23:21:53.192Z,5.80
2022-10-11T23:24:22.208Z,6.60
2022-10-11T23:26:51.185Z,6.10
2022-10-11T23:29:20.246Z,6.70
2022-10-11T23:31:49.304Z,6.13
2022-10-11T23:34:19.975Z,6.13
2022-10-11T23:36:49.006Z,6.27
2022-10-11T23:39:18.093Z,4.40
2022-10-11T23:41:47.228Z,5.40
2022-10-11T23:44:16.273Z,5.50
2022-10-11T23:46:45.348Z,5.10
2022-10-11T23:49:14.501Z,5.30
2022-10-11T23:51:44.881Z,5.57
2022-10-11T23:54:13.911Z,6.10
2022-10-11T23:56:42.936Z,5.60
2022-10-11T23:59:11.983Z,6.03
